sensor_id;sensor_type;location;lat;lon;timestamp;temperature;humidity
17296;DHT22;8766;51.480;6.872;2023-03-14T00:01:10;12.60;72.10
17296;DHT22;8766;51.480;6.872;2023-03-14T00:03:39;12.60;72.20
17296;DHT22;8766;51.480;6.872;2023-03-14T00:06:07;12.60;72.30
17296;DHT22;8766;51.480;6.872;2023-03-14T00:08:34;12.60;72.30
17296;DHT22;8766;51.480;6.872;2023-03-14T00:11:06;12.50;72.20
17296;DHT22;8766;51.480;6.872;2023-03-14T00:13:33;12.50;72.20
17296;DHT22;8766;51.480;6.872;2023-03-14T00:16:04;12.60;72.20
17296;DHT22;8766;51.480;6.872;2023-03-14T00:18:32;12.60;72.10
17296;DHT22;8766;51.480;6.872;2023-03-14T00:21:01;12.60;71.90
17296;DHT22;8766;51.480;6.872;2023-03-14T00:23:30;12.70;71.90
17296;DHT22;8766;51.480;6.872;2023-03-14T00:25:58;12.70;71.70
17296;DHT22;8766;51.480;6.872;2023-03-14T00:28:26;12.80;71.70
17296;DHT22;8766;51.480;6.872;2023-03-14T00:30:53;12.80;71.60
17296;DHT22;8766;51.480;6.872;2023-03-14T00:33:20;12.80;71.60
17296;DHT22;8766;51.480;6.872;2023-03-14T00:35:53;12.80;71.50
17296;DHT22;8766;51.480;6.872;2023-03-14T00:38:21;12.80;71.40
17296;DHT22;8766;51.480;6.872;2023-03-14T00:40:49;12.90;71.30
17296;DHT22;8766;51.480;6.872;2023-03-14T00:43:16;12.90;71.20
17296;DHT22;8766;51.480;6.872;2023-03-14T00:45:43;12.90;71.20
17296;DHT22;8766;51.480;6.872;2023-03-14T00:48:10;12.90;71.10
17296;DHT22;8766;51.480;6.872;2023-03-14T00:50:37;12.90;71.10
17296;DHT22;8766;51.480;6.872;2023-03-14T00:53:04;12.90;71.20
17296;DHT22;8766;51.480;6.872;2023-03-14T00:55:36;12.80;71.30
17296;DHT22;8766;51.480;6.872;2023-03-14T00:58:03;12.70;71.40
17296;DHT22;8766;51.480;6.872;2023-03-14T01:00:30;12.70;71.70
17296;DHT22;8766;51.480;6.872;2023-03-14T01:02:57;12.60;71.80
17296;DHT22;8766;51.480;6.872;2023-03-14T01:05:24;12.50;71.90
17296;DHT22;8766;51.480;6.872;2023-03-14T01:07:51;12.50;72.00
17296;DHT22;8766;51.480;6.872;2023-03-14T01:10:18;12.50;72.10
17296;DHT22;8766;51.480;6.872;2023-03-14T01:12:47;12.40;72.10
17296;DHT22;8766;51.480;6.872;2023-03-14T01:15:14;12.40;72.20
17296;DHT22;8766;51.480;6.872;2023-03-14T01:17:41;12.40;72.30
17296;DHT22;8766;51.480;6.872;2023-03-14T01:20:10;12.40;72.40
17296;DHT22;8766;51.480;6.872;2023-03-14T01:22:38;12.30;72.30
17296;DHT22;8766;51.480;6.872;2023-03-14T01:25:07;12.30;72.40
17296;DHT22;8766;51.480;6.872;2023-03-14T01:27:34;12.30;72.50
17296;DHT22;8766;51.480;6.872;2023-03-14T01:30:03;12.30;72.50
17296;DHT22;8766;51.480;6.872;2023-03-14T01:32:30;12.20;72.50
17296;DHT22;8766;51.480;6.872;2023-03-14T01:34:57;12.20;72.50
17296;DHT22;8766;51.480;6.872;2023-03-14T01:37:24;12.20;72.50
17296;DHT22;8766;51.480;6.872;2023-03-14T01:39:51;12.20;72.50
17296;DHT22;8766;51.480;6.872;2023-03-14T01:42:18;12.20;72.60
17296;DHT22;8766;51.480;6.872;2023-03-14T01:44:50;12.20;72.60
17296;DHT22;8766;51.480;6.872;2023-03-14T01:47:18;12.20;72.60
17296;DHT22;8766;51.480;6.872;2023-03-14T01:49:47;12.20;72.60
17296;DHT22;8766;51.480;6.872;2023-03-14T01:52:17;12.10;72.60
17296;DHT22;8766;51.480;6.872;2023-03-14T01:54:47;12.10;72.70
17296;DHT22;8766;51.480;6.872;2023-03-14T01:57:20;12.10;72.70
17296;DHT22;8766;51.480;6.872;2023-03-14T01:59:51;12.10;72.70
17296;DHT22;8766;51.480;6.872;2023-03-14T02:02:21;12.10;72.80
17296;DHT22;8766;51.480;6.872;2023-03-14T02:04:49;12.10;72.80
17296;DHT22;8766;51.480;6.872;2023-03-14T02:07:19;12.00;72.80
17296;DHT22;8766;51.480;6.872;2023-03-14T02:09:47;12.00;72.80
17296;DHT22;8766;51.480;6.872;2023-03-14T02:12:16;12.00;72.80
17296;DHT22;8766;51.480;6.872;2023-03-14T02:14:43;12.00;72.80
17296;DHT22;8766;51.480;6.872;2023-03-14T02:17:15;12.00;72.90
17296;DHT22;8766;51.480;6.872;2023-03-14T02:19:52;12.00;72.80
17296;DHT22;8766;51.480;6.872;2023-03-14T02:22:22;12.00;72.80
17296;DHT22;8766;51.480;6.872;2023-03-14T02:24:59;12.00;72.80
17296;DHT22;8766;51.480;6.872;2023-03-14T02:27:29;12.00;72.80
17296;DHT22;8766;51.480;6.872;2023-03-14T02:30:00;12.00;72.80
17296;DHT22;8766;51.480;6.872;2023-03-14T02:32:30;12.00;72.80
17296;DHT22;8766;51.480;6.872;2023-03-14T02:34:59;12.00;72.80
17296;DHT22;8766;51.480;6.872;2023-03-14T02:37:30;12.00;72.80
17296;DHT22;8766;51.480;6.872;2023-03-14T02:39:59;12.00;72.80
17296;DHT22;8766;51.480;6.872;2023-03-14T02:42:26;12.00;72.70
17296;DHT22;8766;51.480;6.872;2023-03-14T02:48:02;12.00;72.80
17296;DHT22;8766;51.480;6.872;2023-03-14T02:50:33;12.00;72.80
17296;DHT22;8766;51.480;6.872;2023-03-14T02:53:00;12.00;72.70
17296;DHT22;8766;51.480;6.872;2023-03-14T02:55:27;12.00;72.70
17296;DHT22;8766;51.480;6.872;2023-03-14T02:57:54;11.90;72.70
17296;DHT22;8766;51.480;6.872;2023-03-14T03:00:22;11.90;72.80
17296;DHT22;8766;51.480;6.872;2023-03-14T03:02:49;11.90;72.90
17296;DHT22;8766;51.480;6.872;2023-03-14T03:05:16;11.90;73.00
17296;DHT22;8766;51.480;6.872;2023-03-14T03:07:43;11.80;73.00
17296;DHT22;8766;51.480;6.872;2023-03-14T03:10:11;11.90;73.00
17296;DHT22;8766;51.480;6.872;2023-03-14T03:12:38;11.90;73.00
17296;DHT22;8766;51.480;6.872;2023-03-14T03:15:05;11.80;72.90
17296;DHT22;8766;51.480;6.872;2023-03-14T03:17:34;11.80;72.90
17296;DHT22;8766;51.480;6.872;2023-03-14T03:20:01;11.90;72.90
17296;DHT22;8766;51.480;6.872;2023-03-14T03:22:30;11.90;72.90
17296;DHT22;8766;51.480;6.872;2023-03-14T03:24:57;11.90;73.00
17296;DHT22;8766;51.480;6.872;2023-03-14T03:27:24;11.80;73.00
17296;DHT22;8766;51.480;6.872;2023-03-14T03:29:50;11.80;73.00
17296;DHT22;8766;51.480;6.872;2023-03-14T03:32:17;11.80;73.00
17296;DHT22;8766;51.480;6.872;2023-03-14T03:34:46;11.80;73.00
17296;DHT22;8766;51.480;6.872;2023-03-14T03:37:13;11.80;72.90
17296;DHT22;8766;51.480;6.872;2023-03-14T03:39:40;11.90;73.00
17296;DHT22;8766;51.480;6.872;2023-03-14T03:42:06;11.90;72.90
17296;DHT22;8766;51.480;6.872;2023-03-14T03:44:33;11.90;72.90
17296;DHT22;8766;51.480;6.872;2023-03-14T03:47:00;11.90;72.80
17296;DHT22;8766;51.480;6.872;2023-03-14T03:49:29;11.90;72.80
17296;DHT22;8766;51.480;6.872;2023-03-14T03:51:57;11.90;72.80
17296;DHT22;8766;51.480;6.872;2023-03-14T03:54:24;11.90;72.80
17296;DHT22;8766;51.480;6.872;2023-03-14T03:56:51;11.90;72.80
17296;DHT22;8766;51.480;6.872;2023-03-14T03:59:18;11.90;72.80
17296;DHT22;8766;51.480;6.872;2023-03-14T04:01:45;11.90;72.80
17296;DHT22;8766;51.480;6.872;2023-03-14T04:04:12;11.80;72.90
17296;DHT22;8766;51.480;6.872;2023-03-14T04:06:40;11.80;73.00
17296;DHT22;8766;51.480;6.872;2023-03-14T04:09:09;11.80;73.00
17296;DHT22;8766;51.480;6.872;2023-03-14T04:11:36;11.70;73.00
17296;DHT22;8766;51.480;6.872;2023-03-14T04:14:03;11.80;73.10
17296;DHT22;8766;51.480;6.872;2023-03-14T04:16:30;11.70;73.10
17296;DHT22;8766;51.480;6.872;2023-03-14T04:18:57;11.70;73.10
17296;DHT22;8766;51.480;6.872;2023-03-14T04:21:24;11.70;73.10
17296;DHT22;8766;51.480;6.872;2023-03-14T04:23:51;11.70;73.10
17296;DHT22;8766;51.480;6.872;2023-03-14T04:26:20;11.70;73.10
17296;DHT22;8766;51.480;6.872;2023-03-14T04:28:47;11.70;73.10
17296;DHT22;8766;51.480;6.872;2023-03-14T04:31:16;11.70;73.10
17296;DHT22;8766;51.480;6.872;2023-03-14T04:33:43;11.70;73.20
17296;DHT22;8766;51.480;6.872;2023-03-14T04:36:11;11.70;73.20
17296;DHT22;8766;51.480;6.872;2023-03-14T04:38:38;11.60;73.20
17296;DHT22;8766;51.480;6.872;2023-03-14T04:41:05;11.60;73.30
17296;DHT22;8766;51.480;6.872;2023-03-14T04:43:33;11.60;73.30
17296;DHT22;8766;51.480;6.872;2023-03-14T04:46:00;11.60;73.40
17296;DHT22;8766;51.480;6.872;2023-03-14T04:48:28;11.50;73.40
17296;DHT22;8766;51.480;6.872;2023-03-14T04:50:54;11.50;73.40
17296;DHT22;8766;51.480;6.872;2023-03-14T04:53:21;11.50;73.50
17296;DHT22;8766;51.480;6.872;2023-03-14T04:55:49;11.50;73.50
17296;DHT22;8766;51.480;6.872;2023-03-14T04:58:16;11.50;73.60
17296;DHT22;8766;51.480;6.872;2023-03-14T05:00:44;11.40;73.60
17296;DHT22;8766;51.480;6.872;2023-03-14T05:03:11;11.40;73.70
17296;DHT22;8766;51.480;6.872;2023-03-14T05:05:38;11.40;73.80
17296;DHT22;8766;51.480;6.872;2023-03-14T05:08:05;11.40;73.80
17296;DHT22;8766;51.480;6.872;2023-03-14T05:10:32;11.40;73.80
17296;DHT22;8766;51.480;6.872;2023-03-14T05:12:58;11.40;73.80
17296;DHT22;8766;51.480;6.872;2023-03-14T05:15:35;11.30;73.70
17296;DHT22;8766;51.480;6.872;2023-03-14T05:18:09;11.30;73.70
17296;DHT22;8766;51.480;6.872;2023-03-14T05:20:36;11.30;73.70
17296;DHT22;8766;51.480;6.872;2023-03-14T05:23:03;11.30;73.80
17296;DHT22;8766;51.480;6.872;2023-03-14T05:25:30;11.30;73.80
17296;DHT22;8766;51.480;6.872;2023-03-14T05:27:57;11.30;73.80
17296;DHT22;8766;51.480;6.872;2023-03-14T05:30:24;11.30;73.80
17296;DHT22;8766;51.480;6.872;2023-03-14T05:32:50;11.30;73.80
17296;DHT22;8766;51.480;6.872;2023-03-14T05:35:19;11.30;73.80
17296;DHT22;8766;51.480;6.872;2023-03-14T05:37:46;11.30;73.90
17296;DHT22;8766;51.480;6.872;2023-03-14T05:40:13;11.20;73.80
17296;DHT22;8766;51.480;6.872;2023-03-14T05:42:40;11.30;74.00
17296;DHT22;8766;51.480;6.872;2023-03-14T05:45:07;11.30;74.00
17296;DHT22;8766;51.480;6.872;2023-03-14T05:47:34;11.30;74.00
17296;DHT22;8766;51.480;6.872;2023-03-14T05:50:02;11.30;73.90
17296;DHT22;8766;51.480;6.872;2023-03-14T05:52:30;11.30;73.90
17296;DHT22;8766;51.480;6.872;2023-03-14T05:54:57;11.30;73.90
17296;DHT22;8766;51.480;6.872;2023-03-14T05:57:24;11.30;73.90
17296;DHT22;8766;51.480;6.872;2023-03-14T05:59:50;11.30;73.80
17296;DHT22;8766;51.480;6.872;2023-03-14T06:02:17;11.30;73.80
17296;DHT22;8766;51.480;6.872;2023-03-14T06:04:44;11.30;73.80
17296;DHT22;8766;51.480;6.872;2023-03-14T06:07:11;11.30;73.80
17296;DHT22;8766;51.480;6.872;2023-03-14T06:09:39;11.30;73.80
17296;DHT22;8766;51.480;6.872;2023-03-14T06:12:07;11.30;73.80
17296;DHT22;8766;51.480;6.872;2023-03-14T06:14:33;11.30;73.80
17296;DHT22;8766;51.480;6.872;2023-03-14T06:17:00;11.30;73.80
17296;DHT22;8766;51.480;6.872;2023-03-14T06:19:27;11.30;73.80
17296;DHT22;8766;51.480;6.872;2023-03-14T06:21:54;11.30;73.80
17296;DHT22;8766;51.480;6.872;2023-03-14T06:24:21;11.30;73.80
17296;DHT22;8766;51.480;6.872;2023-03-14T06:26:49;11.30;73.80
17296;DHT22;8766;51.480;6.872;2023-03-14T06:29:16;11.30;73.80
17296;DHT22;8766;51.480;6.872;2023-03-14T06:31:43;11.30;73.80
17296;DHT22;8766;51.480;6.872;2023-03-14T06:34:10;11.30;73.70
17296;DHT22;8766;51.480;6.872;2023-03-14T06:36:37;11.40;73.80
17296;DHT22;8766;51.480;6.872;2023-03-14T06:39:03;11.40;73.70
17296;DHT22;8766;51.480;6.872;2023-03-14T06:41:30;11.40;73.70
17296;DHT22;8766;51.480;6.872;2023-03-14T06:43:59;11.40;73.70
17296;DHT22;8766;51.480;6.872;2023-03-14T06:46:26;11.40;73.70
17296;DHT22;8766;51.480;6.872;2023-03-14T06:48:53;11.40;73.60
17296;DHT22;8766;51.480;6.872;2023-03-14T06:51:21;11.40;73.50
17296;DHT22;8766;51.480;6.872;2023-03-14T06:53:48;11.50;73.50
17296;DHT22;8766;51.480;6.872;2023-03-14T06:56:15;11.50;73.40
17296;DHT22;8766;51.480;6.872;2023-03-14T06:58:42;11.50;73.30
17296;DHT22;8766;51.480;6.872;2023-03-14T07:01:20;11.60;73.30
17296;DHT22;8766;51.480;6.872;2023-03-14T07:03:47;11.60;73.30
17296;DHT22;8766;51.480;6.872;2023-03-14T07:06:14;11.70;73.20
17296;DHT22;8766;51.480;6.872;2023-03-14T07:08:41;11.60;73.10
17296;DHT22;8766;51.480;6.872;2023-03-14T07:11:08;11.70;73.20
17296;DHT22;8766;51.480;6.872;2023-03-14T07:13:36;11.70;73.20
17296;DHT22;8766;51.480;6.872;2023-03-14T07:16:04;11.70;73.20
17296;DHT22;8766;51.480;6.872;2023-03-14T07:18:32;11.60;73.10
17296;DHT22;8766;51.480;6.872;2023-03-14T07:20:59;11.70;73.20
17296;DHT22;8766;51.480;6.872;2023-03-14T07:23:26;11.70;73.20
17296;DHT22;8766;51.480;6.872;2023-03-14T07:25:53;11.70;73.20
17296;DHT22;8766;51.480;6.872;2023-03-14T07:28:20;11.80;73.10
17296;DHT22;8766;51.480;6.872;2023-03-14T07:30:48;11.80;73.00
17296;DHT22;8766;51.480;6.872;2023-03-14T07:33:15;11.90;72.90
17296;DHT22;8766;51.480;6.872;2023-03-14T07:35:44;11.90;72.90
17296;DHT22;8766;51.480;6.872;2023-03-14T07:38:11;11.90;72.80
17296;DHT22;8766;51.480;6.872;2023-03-14T07:40:37;11.90;72.80
17296;DHT22;8766;51.480;6.872;2023-03-14T07:43:04;12.00;72.80
17296;DHT22;8766;51.480;6.872;2023-03-14T07:45:31;12.00;72.80
17296;DHT22;8766;51.480;6.872;2023-03-14T07:47:58;12.00;72.60
17296;DHT22;8766;51.480;6.872;2023-03-14T07:50:28;12.10;72.60
17296;DHT22;8766;51.480;6.872;2023-03-14T07:52:56;12.00;72.60
17296;DHT22;8766;51.480;6.872;2023-03-14T07:55:23;12.00;72.60
17296;DHT22;8766;51.480;6.872;2023-03-14T07:57:50;12.00;72.70
17296;DHT22;8766;51.480;6.872;2023-03-14T08:00:17;12.00;72.80
17296;DHT22;8766;51.480;6.872;2023-03-14T08:02:44;12.00;72.80
17296;DHT22;8766;51.480;6.872;2023-03-14T08:05:12;12.00;72.80
17296;DHT22;8766;51.480;6.872;2023-03-14T08:07:39;12.10;72.70
17296;DHT22;8766;51.480;6.872;2023-03-14T08:10:10;12.10;72.60
17296;DHT22;8766;51.480;6.872;2023-03-14T08:12:41;12.10;72.50
17296;DHT22;8766;51.480;6.872;2023-03-14T08:15:09;12.10;72.50
17296;DHT22;8766;51.480;6.872;2023-03-14T08:17:35;12.10;72.60
17296;DHT22;8766;51.480;6.872;2023-03-14T08:20:03;12.10;72.60
17296;DHT22;8766;51.480;6.872;2023-03-14T08:22:33;12.20;72.50
17296;DHT22;8766;51.480;6.872;2023-03-14T08:25:00;12.30;72.40
17296;DHT22;8766;51.480;6.872;2023-03-14T08:27:28;12.40;72.20
17296;DHT22;8766;51.480;6.872;2023-03-14T08:29:55;12.60;71.80
17296;DHT22;8766;51.480;6.872;2023-03-14T08:32:22;12.90;71.40
17296;DHT22;8766;51.480;6.872;2023-03-14T08:34:49;13.20;70.50
17296;DHT22;8766;51.480;6.872;2023-03-14T08:37:16;13.50;70.00
17296;DHT22;8766;51.480;6.872;2023-03-14T08:39:44;13.60;69.60
17296;DHT22;8766;51.480;6.872;2023-03-14T08:42:11;13.60;69.50
17296;DHT22;8766;51.480;6.872;2023-03-14T08:44:39;13.50;69.60
17296;DHT22;8766;51.480;6.872;2023-03-14T08:47:07;13.40;69.90
17296;DHT22;8766;51.480;6.872;2023-03-14T08:49:34;13.40;70.10
17296;DHT22;8766;51.480;6.872;2023-03-14T08:52:01;13.40;70.20
17296;DHT22;8766;51.480;6.872;2023-03-14T08:54:28;13.30;70.30
17296;DHT22;8766;51.480;6.872;2023-03-14T08:56:55;13.30;70.60
17296;DHT22;8766;51.480;6.872;2023-03-14T08:59:23;13.20;70.70
17296;DHT22;8766;51.480;6.872;2023-03-14T09:01:51;13.10;71.00
17296;DHT22;8766;51.480;6.872;2023-03-14T09:04:18;13.00;71.20
17296;DHT22;8766;51.480;6.872;2023-03-14T09:06:45;12.90;71.60
17296;DHT22;8766;51.480;6.872;2023-03-14T09:09:13;12.80;71.80
17296;DHT22;8766;51.480;6.872;2023-03-14T09:11:40;12.70;72.10
17296;DHT22;8766;51.480;6.872;2023-03-14T09:14:07;12.60;72.20
17296;DHT22;8766;51.480;6.872;2023-03-14T09:16:34;12.60;72.40
17296;DHT22;8766;51.480;6.872;2023-03-14T09:19:02;12.50;72.50
17296;DHT22;8766;51.480;6.872;2023-03-14T09:21:29;12.40;72.70
17296;DHT22;8766;51.480;6.872;2023-03-14T09:23:56;12.20;72.90
17296;DHT22;8766;51.480;6.872;2023-03-14T09:26:23;12.10;73.20
17296;DHT22;8766;51.480;6.872;2023-03-14T09:28:49;12.10;73.30
17296;DHT22;8766;51.480;6.872;2023-03-14T09:31:17;12.00;73.40
17296;DHT22;8766;51.480;6.872;2023-03-14T09:33:44;11.90;73.50
17296;DHT22;8766;51.480;6.872;2023-03-14T09:36:12;11.90;73.60
17296;DHT22;8766;51.480;6.872;2023-03-14T09:38:39;11.90;73.70
17296;DHT22;8766;51.480;6.872;2023-03-14T09:41:14;11.80;73.70
17296;DHT22;8766;51.480;6.872;2023-03-14T09:43:43;11.70;73.90
17296;DHT22;8766;51.480;6.872;2023-03-14T09:46:12;11.60;74.00
17296;DHT22;8766;51.480;6.872;2023-03-14T09:48:40;11.60;74.00
17296;DHT22;8766;51.480;6.872;2023-03-14T09:51:14;11.60;74.10
17296;DHT22;8766;51.480;6.872;2023-03-14T09:53:44;11.50;74.00
17296;DHT22;8766;51.480;6.872;2023-03-14T09:56:14;11.50;74.10
17296;DHT22;8766;51.480;6.872;2023-03-14T09:58:48;11.50;74.20
17296;DHT22;8766;51.480;6.872;2023-03-14T10:01:22;11.40;74.30
17296;DHT22;8766;51.480;6.872;2023-03-14T10:03:51;11.30;74.40
17296;DHT22;8766;51.480;6.872;2023-03-14T10:06:24;11.30;74.40
17296;DHT22;8766;51.480;6.872;2023-03-14T10:08:51;11.30;74.50
17296;DHT22;8766;51.480;6.872;2023-03-14T10:11:20;11.20;74.50
17296;DHT22;8766;51.480;6.872;2023-03-14T10:14:02;11.20;74.60
17296;DHT22;8766;51.480;6.872;2023-03-14T10:16:33;11.20;74.70
17296;DHT22;8766;51.480;6.872;2023-03-14T10:19:03;11.20;74.60
17296;DHT22;8766;51.480;6.872;2023-03-14T10:21:36;11.20;74.60
17296;DHT22;8766;51.480;6.872;2023-03-14T10:24:17;11.20;74.50
17296;DHT22;8766;51.480;6.872;2023-03-14T10:26:48;11.20;74.50
17296;DHT22;8766;51.480;6.872;2023-03-14T10:29:16;11.20;74.50
17296;DHT22;8766;51.480;6.872;2023-03-14T10:31:50;11.10;74.40
17296;DHT22;8766;51.480;6.872;2023-03-14T10:34:23;11.10;74.50
17296;DHT22;8766;51.480;6.872;2023-03-14T10:36:57;11.10;74.50
17296;DHT22;8766;51.480;6.872;2023-03-14T10:39:38;11.10;74.60
17296;DHT22;8766;51.480;6.872;2023-03-14T10:42:15;11.10;74.60
17296;DHT22;8766;51.480;6.872;2023-03-14T10:44:44;11.10;74.50
17296;DHT22;8766;51.480;6.872;2023-03-14T10:47:17;11.10;74.40
17296;DHT22;8766;51.480;6.872;2023-03-14T10:49:45;11.00;74.50
17296;DHT22;8766;51.480;6.872;2023-03-14T10:52:20;11.00;74.40
17296;DHT22;8766;51.480;6.872;2023-03-14T10:54:50;11.10;74.40
17296;DHT22;8766;51.480;6.872;2023-03-14T10:57:20;11.10;74.20
17296;DHT22;8766;51.480;6.872;2023-03-14T10:59:47;11.20;74.10
17296;DHT22;8766;51.480;6.872;2023-03-14T11:02:40;11.20;73.90
17296;DHT22;8766;51.480;6.872;2023-03-14T11:05:21;11.20;73.80
17296;DHT22;8766;51.480;6.872;2023-03-14T11:07:55;11.30;73.70
17296;DHT22;8766;51.480;6.872;2023-03-14T11:10:29;11.30;73.60
17296;DHT22;8766;51.480;6.872;2023-03-14T11:13:04;11.30;73.70
17296;DHT22;8766;51.480;6.872;2023-03-14T11:15:34;11.20;73.80
17296;DHT22;8766;51.480;6.872;2023-03-14T11:18:25;11.30;73.70
17296;DHT22;8766;51.480;6.872;2023-03-14T11:20:57;11.60;73.20
17296;DHT22;8766;51.480;6.872;2023-03-14T11:23:32;11.80;72.70
17296;DHT22;8766;51.480;6.872;2023-03-14T11:26:13;11.90;72.10
17296;DHT22;8766;51.480;6.872;2023-03-14T11:28:49;12.00;71.80
17296;DHT22;8766;51.480;6.872;2023-03-14T11:31:19;12.00;71.70
17296;DHT22;8766;51.480;6.872;2023-03-14T11:33:51;12.00;71.70
17296;DHT22;8766;51.480;6.872;2023-03-14T11:36:23;12.00;71.70
17296;DHT22;8766;51.480;6.872;2023-03-14T11:38:58;12.00;71.80
17296;DHT22;8766;51.480;6.872;2023-03-14T11:41:26;11.90;71.80
17296;DHT22;8766;51.480;6.872;2023-03-14T11:43:57;11.80;72.10
17296;DHT22;8766;51.480;6.872;2023-03-14T11:46:26;11.60;72.50
17296;DHT22;8766;51.480;6.872;2023-03-14T11:48:59;11.50;72.90
17296;DHT22;8766;51.480;6.872;2023-03-14T11:51:30;11.30;73.10
17296;DHT22;8766;51.480;6.872;2023-03-14T11:54:04;11.30;73.30
17296;DHT22;8766;51.480;6.872;2023-03-14T11:56:39;11.20;73.50
17296;DHT22;8766;51.480;6.872;2023-03-14T11:59:15;11.10;73.50
17296;DHT22;8766;51.480;6.872;2023-03-14T12:01:53;11.20;73.50
17296;DHT22;8766;51.480;6.872;2023-03-14T12:04:31;11.30;73.20
17296;DHT22;8766;51.480;6.872;2023-03-14T12:07:03;11.50;72.90
17296;DHT22;8766;51.480;6.872;2023-03-14T12:09:35;11.70;72.20
17296;DHT22;8766;51.480;6.872;2023-03-14T12:12:04;12.00;71.60
17296;DHT22;8766;51.480;6.872;2023-03-14T12:14:33;12.20;71.80
17296;DHT22;8766;51.480;6.872;2023-03-14T12:17:06;12.30;70.90
17296;DHT22;8766;51.480;6.872;2023-03-14T12:19:35;12.40;70.70
17296;DHT22;8766;51.480;6.872;2023-03-14T12:22:24;12.50;70.40
17296;DHT22;8766;51.480;6.872;2023-03-14T12:25:12;12.70;70.20
17296;DHT22;8766;51.480;6.872;2023-03-14T12:28:03;12.70;70.70
17296;DHT22;8766;51.480;6.872;2023-03-14T12:30:33;12.60;69.90
17296;DHT22;8766;51.480;6.872;2023-03-14T12:33:20;12.60;70.00
17296;DHT22;8766;51.480;6.872;2023-03-14T12:35:49;12.50;70.20
17296;DHT22;8766;51.480;6.872;2023-03-14T12:38:18;12.40;70.30
17296;DHT22;8766;51.480;6.872;2023-03-14T12:40:58;12.20;70.60
17296;DHT22;8766;51.480;6.872;2023-03-14T12:43:28;12.00;71.00
17296;DHT22;8766;51.480;6.872;2023-03-14T12:46:20;11.80;71.50
17296;DHT22;8766;51.480;6.872;2023-03-14T12:48:48;11.50;72.10
17296;DHT22;8766;51.480;6.872;2023-03-14T12:51:16;11.40;73.20
17296;DHT22;8766;51.480;6.872;2023-03-14T12:54:02;11.40;72.60
17296;DHT22;8766;51.480;6.872;2023-03-14T12:57:03;11.40;72.50
17296;DHT22;8766;51.480;6.872;2023-03-14T12:59:33;11.50;72.20
17296;DHT22;8766;51.480;6.872;2023-03-14T13:02:09;11.70;71.90
17296;DHT22;8766;51.480;6.872;2023-03-14T13:04:44;11.80;71.50
17296;DHT22;8766;51.480;6.872;2023-03-14T13:07:13;12.00;70.90
17296;DHT22;8766;51.480;6.872;2023-03-14T13:09:55;12.10;70.60
17296;DHT22;8766;51.480;6.872;2023-03-14T13:12:38;12.10;70.50
17296;DHT22;8766;51.480;6.872;2023-03-14T13:15:21;12.10;70.60
17296;DHT22;8766;51.480;6.872;2023-03-14T13:17:50;11.90;70.80
17296;DHT22;8766;51.480;6.872;2023-03-14T13:20:23;11.60;71.20
17296;DHT22;8766;51.480;6.872;2023-03-14T13:22:51;11.40;71.90
17296;DHT22;8766;51.480;6.872;2023-03-14T13:25:18;11.30;72.20
17296;DHT22;8766;51.480;6.872;2023-03-14T13:27:48;11.30;72.30
17296;DHT22;8766;51.480;6.872;2023-03-14T13:30:21;11.30;72.30
17296;DHT22;8766;51.480;6.872;2023-03-14T13:32:49;11.30;72.20
17296;DHT22;8766;51.480;6.872;2023-03-14T13:35:19;11.40;72.00
17296;DHT22;8766;51.480;6.872;2023-03-14T13:37:47;11.50;71.80
17296;DHT22;8766;51.480;6.872;2023-03-14T13:40:20;11.50;71.70
17296;DHT22;8766;51.480;6.872;2023-03-14T13:42:49;11.50;71.60
17296;DHT22;8766;51.480;6.872;2023-03-14T13:45:16;11.50;71.60
17296;DHT22;8766;51.480;6.872;2023-03-14T13:47:43;11.50;71.40
17296;DHT22;8766;51.480;6.872;2023-03-14T13:50:15;11.60;71.30
17296;DHT22;8766;51.480;6.872;2023-03-14T13:52:43;11.60;71.20
17296;DHT22;8766;51.480;6.872;2023-03-14T13:55:15;11.70;71.00
17296;DHT22;8766;51.480;6.872;2023-03-14T13:57:44;11.80;70.90
17296;DHT22;8766;51.480;6.872;2023-03-14T14:00:19;11.80;70.70
17296;DHT22;8766;51.480;6.872;2023-03-14T14:02:47;11.90;70.60
17296;DHT22;8766;51.480;6.872;2023-03-14T14:05:15;12.00;70.30
17296;DHT22;8766;51.480;6.872;2023-03-14T14:07:43;12.10;70.10
17296;DHT22;8766;51.480;6.872;2023-03-14T14:10:12;12.20;69.70
17296;DHT22;8766;51.480;6.872;2023-03-14T14:12:43;12.40;69.50
17296;DHT22;8766;51.480;6.872;2023-03-14T14:15:20;12.60;69.10
17296;DHT22;8766;51.480;6.872;2023-03-14T14:17:50;12.60;68.70
17296;DHT22;8766;51.480;6.872;2023-03-14T14:20:22;12.60;68.70
17296;DHT22;8766;51.480;6.872;2023-03-14T14:22:50;12.50;68.90
17296;DHT22;8766;51.480;6.872;2023-03-14T14:25:18;12.40;69.70
17296;DHT22;8766;51.480;6.872;2023-03-14T14:27:48;12.30;69.40
17296;DHT22;8766;51.480;6.872;2023-03-14T14:30:28;12.20;69.60
17296;DHT22;8766;51.480;6.872;2023-03-14T14:33:11;12.10;69.80
17296;DHT22;8766;51.480;6.872;2023-03-14T14:35:39;12.00;70.00
17296;DHT22;8766;51.480;6.872;2023-03-14T14:38:12;11.80;70.10
17296;DHT22;8766;51.480;6.872;2023-03-14T14:40:47;11.70;70.30
17296;DHT22;8766;51.480;6.872;2023-03-14T14:43:17;11.60;70.50
17296;DHT22;8766;51.480;6.872;2023-03-14T14:45:48;11.50;70.60
17296;DHT22;8766;51.480;6.872;2023-03-14T14:48:19;11.50;70.60
17296;DHT22;8766;51.480;6.872;2023-03-14T14:50:55;11.50;70.50
17296;DHT22;8766;51.480;6.872;2023-03-14T14:53:26;11.60;70.40
17296;DHT22;8766;51.480;6.872;2023-03-14T14:55:55;11.60;70.10
17296;DHT22;8766;51.480;6.872;2023-03-14T14:58:25;11.60;69.90
17296;DHT22;8766;51.480;6.872;2023-03-14T15:00:57;11.60;70.10
17296;DHT22;8766;51.480;6.872;2023-03-14T15:03:28;11.50;70.10
17296;DHT22;8766;51.480;6.872;2023-03-14T15:05:56;11.50;70.20
17296;DHT22;8766;51.480;6.872;2023-03-14T15:08:24;11.40;70.10
17296;DHT22;8766;51.480;6.872;2023-03-14T15:10:52;11.40;70.20
17296;DHT22;8766;51.480;6.872;2023-03-14T15:13:19;11.30;70.20
17296;DHT22;8766;51.480;6.872;2023-03-14T15:15:46;11.30;70.40
17296;DHT22;8766;51.480;6.872;2023-03-14T15:18:17;11.20;70.30
17296;DHT22;8766;51.480;6.872;2023-03-14T15:20:45;11.20;70.40
17296;DHT22;8766;51.480;6.872;2023-03-14T15:23:12;11.20;70.30
17296;DHT22;8766;51.480;6.872;2023-03-14T15:25:40;11.10;70.20
17296;DHT22;8766;51.480;6.872;2023-03-14T15:28:14;11.10;70.10
17296;DHT22;8766;51.480;6.872;2023-03-14T15:30:42;11.00;70.20
17296;DHT22;8766;51.480;6.872;2023-03-14T15:33:09;10.90;70.30
17296;DHT22;8766;51.480;6.872;2023-03-14T15:35:38;10.90;70.40
17296;DHT22;8766;51.480;6.872;2023-03-14T15:38:09;10.90;70.40
17296;DHT22;8766;51.480;6.872;2023-03-14T15:40:37;10.90;70.40
17296;DHT22;8766;51.480;6.872;2023-03-14T15:43:04;10.80;70.40
17296;DHT22;8766;51.480;6.872;2023-03-14T15:45:31;10.90;70.30
17296;DHT22;8766;51.480;6.872;2023-03-14T15:47:58;10.80;70.20
17296;DHT22;8766;51.480;6.872;2023-03-14T15:50:25;10.80;70.20
17296;DHT22;8766;51.480;6.872;2023-03-14T15:52:54;10.80;70.20
17296;DHT22;8766;51.480;6.872;2023-03-14T15:55:21;10.80;70.20
17296;DHT22;8766;51.480;6.872;2023-03-14T15:57:48;10.80;70.10
17296;DHT22;8766;51.480;6.872;2023-03-14T16:00:18;10.80;70.00
17296;DHT22;8766;51.480;6.872;2023-03-14T16:02:47;10.70;70.00